Time;durP1;ratioP1;P1;durP2;ratioP2;P2;SDS_P1;SDS_P2;PMS_P1;PMS_P2;Temp;Humidity;BMP_temperature;BMP_pressure;BME280_temperature;BME280_humidity;BME280_pressure;Samples;Min_cycle;Max_cycle;Signal;HPM_P1;HPM_P2
2024/02/10 00:01:48;;;;;;;11.95;7.05;;;;;;;;;;5051563;28;20046;-50
2024/02/10 00:04:16;;;;;;;12.18;7.10;;;;;;;;;;5050779;28;20510;-52
2024/02/10 00:06:42;;;;;;;12.20;7.18;;;;;;;;;;5051531;28;20079;-47
2024/02/10 00:09:09;;;;;;;12.20;7.18;;;;;;;;;;5051576;28;20037;-48
2024/02/10 00:11:36;;;;;;;12.13;7.13;;;;;;;;;;5051267;28;20048;-52
2024/02/10 00:14:02;;;;;;;12.50;7.30;;;;;;;;;;5051492;28;20104;-51
2024/02/10 00:16:29;;;;;;;67.25;57.92;;;;;;;;;;5053581;28;20028;-46
2024/02/10 00:18:57;;;;;;;12.80;7.50;;;;;;;;;;5060639;28;20028;-52
2024/02/10 00:21:24;;;;;;;12.18;7.10;;;;;;;;;;5062255;28;20104;-53
2024/02/10 00:23:49;;;;;;;13.18;7.75;;;;;;;;;;5060283;28;20021;-49
2024/02/10 00:26:21;;;;;;;12.20;7.50;;;;;;;;;;5058422;28;20506;-52
2024/02/10 00:28:50;;;;;;;12.70;7.40;;;;;;;;;;5051790;28;20673;-48
2024/02/10 00:31:16;;;;;;;12.60;7.30;;;;;;;;;;5051485;28;20147;-49
2024/02/10 00:33:46;;;;;;;13.13;7.68;;;;;;;;;;5051450;28;20044;-51
2024/02/10 00:36:12;;;;;;;13.50;8.30;;;;;;;;;;5051308;28;20108;-52
2024/02/10 00:38:40;;;;;;;13.32;7.93;;;;;;;;;;5051043;28;20033;-49
2024/02/10 00:41:06;;;;;;;14.32;9.02;;;;;;;;;;5051182;28;20021;-48
2024/02/10 00:43:33;;;;;;;13.73;9.07;;;;;;;;;;5061585;28;20024;-51
2024/02/10 00:45:59;;;;;;;13.82;9.32;;;;;;;;;;4717540;28;9999950;-50
2024/02/10 00:48:26;;;;;;;13.68;9.02;;;;;;;;;;5048337;28;20574;-52
2024/02/10 00:50:52;;;;;;;13.85;9.65;;;;;;;;;;5047960;28;20076;-47
2024/02/10 00:53:21;;;;;;;15.18;13.27;;;;;;;;;;5061414;28;20405;-51
2024/02/10 00:55:47;;;;;;;15.57;13.88;;;;;;;;;;5070698;28;20414;-48
2024/02/10 00:58:14;;;;;;;19.30;17.50;;;;;;;;;;5070408;22;20053;-59
2024/02/10 01:00:42;;;;;;;24.50;22.50;;;;;;;;;;5029799;28;20072;-59
2024/02/10 01:03:08;;;;;;;25.37;23.37;;;;;;;;;;5027534;28;20104;-59
2024/02/10 01:05:37;;;;;;;25.25;23.25;;;;;;;;;;5027417;28;20060;-59
2024/02/10 01:08:05;;;;;;;26.38;24.33;;;;;;;;;;5028614;28;20021;-59
2024/02/10 01:10:31;;;;;;;28.10;26.00;;;;;;;;;;5028480;28;20033;-60
2024/02/10 01:12:57;;;;;;;28.70;26.50;;;;;;;;;;5027984;28;20435;-59
2024/02/10 01:15:24;;;;;;;27.85;25.65;;;;;;;;;;5028551;28;20034;-60
2024/02/10 01:17:50;;;;;;;27.40;25.30;;;;;;;;;;5029796;28;20029;-56
2024/02/10 01:20:17;;;;;;;26.25;24.15;;;;;;;;;;5029906;28;20113;-59
2024/02/10 01:22:45;;;;;;;26.08;23.98;;;;;;;;;;5029556;28;20024;-60
2024/02/10 01:25:11;;;;;;;26.27;24.17;;;;;;;;;;5029680;28;20021;-60
2024/02/10 01:27:37;;;;;;;25.75;23.65;;;;;;;;;;5029471;28;20112;-60
2024/02/10 01:30:03;;;;;;;25.13;23.13;;;;;;;;;;5029862;28;20097;-56
2024/02/10 01:32:29;;;;;;;26.08;23.98;;;;;;;;;;5029958;28;20096;-60
2024/02/10 01:34:55;;;;;;;27.83;25.63;;;;;;;;;;5029888;28;20428;-59
2024/02/10 01:37:21;;;;;;;27.67;25.48;;;;;;;;;;5029659;28;20057;-59
2024/02/10 01:39:48;;;;;;;28.05;25.85;;;;;;;;;;5029798;28;20060;-59
2024/02/10 01:42:15;;;;;;;27.75;25.55;;;;;;;;;;5028543;28;20433;-56
2024/02/10 01:44:43;;;;;;;28.05;25.85;;;;;;;;;;5029788;28;20037;-60
2024/02/10 01:47:10;;;;;;;27.67;25.52;;;;;;;;;;5029634;28;20048;-58
2024/02/10 01:49:37;;;;;;;27.13;25.02;;;;;;;;;;5029725;28;20116;-60
2024/02/10 01:52:04;;;;;;;28.52;26.33;;;;;;;;;;5027918;28;20026;-59
2024/02/10 01:54:30;;;;;;;27.80;25.60;;;;;;;;;;5029267;28;20029;-60
2024/02/10 01:56:56;;;;;;;26.10;24.00;;;;;;;;;;5027755;28;20399;-59
2024/02/10 01:59:22;;;;;;;25.90;23.80;;;;;;;;;;5029221;28;20029;-58
2024/02/10 02:01:48;;;;;;;26.10;24.00;;;;;;;;;;5028229;28;20087;-58
2024/02/10 02:04:15;;;;;;;26.80;24.70;;;;;;;;;;5029387;28;20025;-59
2024/02/10 02:06:41;;;;;;;27.10;25.00;;;;;;;;;;5029106;28;20097;-61
2024/02/10 02:09:08;;;;;;;27.05;24.95;;;;;;;;;;5028812;28;20331;-61
2024/02/10 02:11:44;;;;;;;26.52;24.42;;;;;;;;;;5027524;28;20388;-59
2024/02/10 02:14:10;;;;;;;26.92;24.83;;;;;;;;;;5029204;28;20083;-59
2024/02/10 02:16:39;;;;;;;27.88;25.67;;;;;;;;;;5028918;28;20038;-58
2024/02/10 02:19:07;;;;;;;27.42;25.23;;;;;;;;;;5028810;28;20029;-59
2024/02/10 02:21:33;;;;;;;26.58;24.48;;;;;;;;;;5027354;28;20021;-59
2024/02/10 02:23:59;;;;;;;27.15;25.05;;;;;;;;;;5028835;28;20098;-59
2024/02/10 02:26:25;;;;;;;27.33;25.23;;;;;;;;;;5028756;28;20028;-59
2024/02/10 02:28:51;;;;;;;26.40;24.30;;;;;;;;;;5028725;28;20559;-60
2024/02/10 02:31:17;;;;;;;27.52;25.42;;;;;;;;;;5028671;28;20499;-59
2024/02/10 02:33:43;;;;;;;27.17;25.08;;;;;;;;;;5028690;28;20021;-59
2024/02/10 02:36:09;;;;;;;27.45;25.35;;;;;;;;;;5028848;28;20029;-60
2024/02/10 02:38:38;;;;;;;26.95;24.85;;;;;;;;;;5028626;28;20033;-60
2024/02/10 02:41:04;;;;;;;27.10;25.00;;;;;;;;;;5027255;28;20018;-59
2024/02/10 02:43:35;;;;;;;27.42;25.27;;;;;;;;;;5029003;28;20021;-58
2024/02/10 02:46:01;;;;;;;26.83;24.73;;;;;;;;;;5030106;28;20021;-57
2024/02/10 02:48:27;;;;;;;27.42;25.33;;;;;;;;;;5029153;28;20107;-58
2024/02/10 02:50:54;;;;;;;26.92;24.83;;;;;;;;;;5028964;28;20033;-59
2024/02/10 02:53:22;;;;;;;28.23;26.02;;;;;;;;;;5029022;28;20029;-60
2024/02/10 02:55:48;;;;;;;26.77;24.67;;;;;;;;;;5029224;28;20029;-60
2024/02/10 02:58:14;;;;;;;26.70;24.60;;;;;;;;;;5028768;28;20135;-57
2024/02/10 03:00:42;;;;;;;27.48;25.38;;;;;;;;;;5029152;28;20025;-56
2024/02/10 03:03:08;;;;;;;26.30;24.20;;;;;;;;;;5028582;28;20037;-58
2024/02/10 03:05:34;;;;;;;26.65;24.55;;;;;;;;;;5028669;28;20025;-59
2024/02/10 03:08:01;;;;;;;27.58;25.38;;;;;;;;;;5028506;28;20029;-58
2024/02/10 03:10:28;;;;;;;27.55;25.45;;;;;;;;;;5028615;28;20033;-57
2024/02/10 03:12:55;;;;;;;26.58;24.48;;;;;;;;;;5029106;28;20507;-59
2024/02/10 03:15:21;;;;;;;26.83;24.73;;;;;;;;;;5032393;28;20487;-60
2024/02/10 03:17:49;;;;;;;27.77;25.58;;;;;;;;;;5032230;28;20082;-59
2024/02/10 03:20:21;;;;;;;27.13;25.00;;;;;;;;;;5032320;28;20029;-58
2024/02/10 03:22:53;;;;;;;27.30;25.10;;;;;;;;;;5032153;28;20279;-60
2024/02/10 03:25:19;;;;;;;27.67;25.48;;;;;;;;;;5032395;28;20041;-58
2024/02/10 03:27:46;;;;;;;27.98;25.77;;;;;;;;;;5032152;28;20030;-60
2024/02/10 03:30:15;;;;;;;28.48;26.27;;;;;;;;;;5032006;28;20427;-59
2024/02/10 03:32:41;;;;;;;28.50;26.30;;;;;;;;;;5032037;28;20023;-60
2024/02/10 03:35:07;;;;;;;28.33;26.13;;;;;;;;;;5032120;28;20126;-58
2024/02/10 03:37:35;;;;;;;28.30;26.10;;;;;;;;;;5032063;28;20049;-59
2024/02/10 03:40:06;;;;;;;28.60;26.40;;;;;;;;;;5031856;28;20051;-55
2024/02/10 03:42:33;;;;;;;28.88;26.67;;;;;;;;;;5031778;28;20025;-59
2024/02/10 03:44:59;;;;;;;28.90;26.70;;;;;;;;;;5031725;28;20072;-60
2024/02/10 03:47:25;;;;;;;28.80;26.60;;;;;;;;;;5031619;28;20029;-58
2024/02/10 03:49:51;;;;;;;28.88;26.67;;;;;;;;;;5031572;28;20408;-59
2024/02/10 03:52:17;;;;;;;29.05;26.85;;;;;;;;;;5031275;28;20026;-59
2024/02/10 03:54:43;;;;;;;28.98;26.77;;;;;;;;;;5031564;28;20087;-58
2024/02/10 03:57:09;;;;;;;28.65;26.45;;;;;;;;;;5031299;28;20025;-58
2024/02/10 03:59:39;;;;;;;29.05;26.85;;;;;;;;;;5031412;28;20471;-59
2024/02/10 04:02:05;;;;;;;28.50;26.30;;;;;;;;;;5031247;28;20056;-57
2024/02/10 04:04:31;;;;;;;28.60;26.40;;;;;;;;;;5031508;28;20025;-59
2024/02/10 04:06:57;;;;;;;28.75;26.55;;;;;;;;;;5031440;28;20044;-59
2024/02/10 04:09:24;;;;;;;28.70;26.50;;;;;;;;;;5031546;28;20017;-61
2024/02/10 04:11:50;;;;;;;28.60;26.40;;;;;;;;;;5031794;28;20017;-58
2024/02/10 04:14:20;;;;;;;28.65;26.45;;;;;;;;;;5031601;28;20018;-60
2024/02/10 04:16:52;;;;;;;28.73;26.52;;;;;;;;;;5031686;28;20053;-59
2024/02/10 04:19:18;;;;;;;28.65;26.45;;;;;;;;;;5031637;28;20030;-59
2024/02/10 04:21:46;;;;;;;28.38;26.17;;;;;;;;;;5031270;28;20471;-59
2024/02/10 04:24:16;;;;;;;28.80;26.60;;;;;;;;;;5031070;28;20037;-58
2024/02/10 04:26:42;;;;;;;29.02;26.83;;;;;;;;;;5030862;28;20100;-60
2024/02/10 04:29:08;;;;;;;28.85;26.65;;;;;;;;;;5031222;28;20543;-60
2024/02/10 04:31:39;;;;;;;29.38;27.17;;;;;;;;;;5030994;28;20048;-59
2024/02/10 04:34:05;;;;;;;29.45;27.15;;;;;;;;;;5029778;28;20018;-59
2024/02/10 04:36:34;;;;;;;29.52;27.23;;;;;;;;;;5031011;28;20565;-60
2024/02/10 04:39:03;;;;;;;29.25;27.00;;;;;;;;;;5029393;28;20116;-59
2024/02/10 04:41:29;;;;;;;29.73;27.42;;;;;;;;;;5030900;28;20021;-60
2024/02/10 04:43:55;;;;;;;29.73;27.42;;;;;;;;;;5030725;28;20440;-59
2024/02/10 04:46:22;;;;;;;30.00;27.70;;;;;;;;;;5030838;28;20077;-61
2024/02/10 04:48:52;;;;;;;29.75;27.45;;;;;;;;;;5030619;28;20503;-62
2024/02/10 04:51:18;;;;;;;30.00;27.70;;;;;;;;;;5030798;28;20102;-60
2024/02/10 04:53:44;;;;;;;30.08;27.77;;;;;;;;;;5030481;28;20025;-60
2024/02/10 04:56:19;;;;;;;30.25;27.95;;;;;;;;;;5030385;28;20637;-57
2024/02/10 04:58:49;;;;;;;30.15;27.85;;;;;;;;;;5030333;28;20036;-59
2024/02/10 05:01:19;;;;;;;30.20;27.90;;;;;;;;;;5030490;28;20036;-59
2024/02/10 05:03:49;;;;;;;30.05;27.75;;;;;;;;;;5030308;28;20026;-58
2024/02/10 05:06:15;;;;;;;29.75;27.45;;;;;;;;;;5038723;28;20486;-59
2024/02/10 05:08:41;;;;;;;29.45;27.15;;;;;;;;;;5050191;28;20028;-59
2024/02/10 05:11:07;;;;;;;29.48;27.17;;;;;;;;;;5050212;28;20546;-57
2024/02/10 05:13:33;;;;;;;29.30;27.00;;;;;;;;;;5050290;28;20021;-59
2024/02/10 05:15:59;;;;;;;29.30;27.00;;;;;;;;;;5052968;28;20091;-58
2024/02/10 05:18:25;;;;;;;29.48;27.17;;;;;;;;;;5055883;28;20060;-54
2024/02/10 05:20:52;;;;;;;29.23;27.00;;;;;;;;;;5053522;28;20118;-59
2024/02/10 05:23:19;;;;;;;29.27;27.05;;;;;;;;;;5053410;28;20017;-58
2024/02/10 05:25:45;;;;;;;28.55;26.35;;;;;;;;;;5051861;28;20391;-59
2024/02/10 05:28:11;;;;;;;28.85;26.65;;;;;;;;;;5049557;28;20033;-59
2024/02/10 05:30:37;;;;;;;29.08;26.85;;;;;;;;;;5050389;28;20704;-57
2024/02/10 05:33:04;;;;;;;29.00;26.80;;;;;;;;;;5050065;28;20021;-59
2024/02/10 05:35:31;;;;;;;28.80;26.60;;;;;;;;;;5050886;28;20522;-58
2024/02/10 05:37:59;;;;;;;28.80;26.60;;;;;;;;;;5050039;28;20017;-59
2024/02/10 05:40:26;;;;;;;28.80;26.60;;;;;;;;;;5049857;28;20043;-61
2024/02/10 05:42:52;;;;;;;28.85;26.65;;;;;;;;;;5049174;28;20077;-59
2024/02/10 05:45:19;;;;;;;29.05;26.80;;;;;;;;;;5049862;28;20029;-60
2024/02/10 05:47:47;;;;;;;29.25;26.95;;;;;;;;;;5049938;28;20199;-59
2024/02/10 05:50:18;;;;;;;29.38;27.10;;;;;;;;;;5049473;28;20104;-61
2024/02/10 05:52:44;;;;;;;29.60;27.30;;;;;;;;;;5049703;28;20025;-60
2024/02/10 05:55:12;;;;;;;29.23;26.92;;;;;;;;;;5049611;28;20017;-59
2024/02/10 05:57:38;;;;;;;29.05;26.85;;;;;;;;;;5049353;28;20036;-60
2024/02/10 06:00:10;;;;;;;29.05;26.85;;;;;;;;;;5049559;28;20052;-60
2024/02/10 06:02:39;;;;;;;29.38;27.17;;;;;;;;;;5049303;28;20112;-60
2024/02/10 06:05:06;;;;;;;29.73;27.42;;;;;;;;;;5049516;28;20025;-60
2024/02/10 06:07:35;;;;;;;29.90;27.60;;;;;;;;;;5049229;28;20099;-59
2024/02/10 06:10:02;;;;;;;29.58;27.27;;;;;;;;;;5049506;28;20498;-60
2024/02/10 06:12:28;;;;;;;29.42;27.13;;;;;;;;;;5049352;28;20087;-61
2024/02/10 06:14:54;;;;;;;29.48;27.17;;;;;;;;;;5049231;28;20021;-60
2024/02/10 06:17:21;;;;;;;29.20;26.90;;;;;;;;;;5049340;28;20141;-60
2024/02/10 06:19:50;;;;;;;29.00;26.80;;;;;;;;;;5049581;28;20236;-58
2024/02/10 06:22:18;;;;;;;29.13;26.90;;;;;;;;;;5048903;28;20079;-60
2024/02/10 06:24:44;;;;;;;28.88;26.67;;;;;;;;;;5049483;28;20040;-61
2024/02/10 06:27:10;;;;;;;29.30;27.05;;;;;;;;;;5048982;28;20402;-60
2024/02/10 06:29:36;;;;;;;28.90;26.70;;;;;;;;;;5048996;28;20566;-60
2024/02/10 06:32:06;;;;;;;28.95;26.75;;;;;;;;;;5048637;28;20036;-61
2024/02/10 06:34:32;;;;;;;28.80;26.60;;;;;;;;;;5048977;28;20033;-59
2024/02/10 06:36:58;;;;;;;28.92;26.73;;;;;;;;;;5049040;28;20097;-61
2024/02/10 06:39:24;;;;;;;28.98;26.77;;;;;;;;;;5048946;28;20033;-59
2024/02/10 06:41:50;;;;;;;28.95;26.75;;;;;;;;;;5049642;28;20025;-59
2024/02/10 06:44:17;;;;;;;29.25;27.05;;;;;;;;;;5049292;28;20077;-60
2024/02/10 06:46:43;;;;;;;28.73;26.52;;;;;;;;;;5048905;28;20017;-58
2024/02/10 06:49:09;;;;;;;28.88;26.67;;;;;;;;;;5051385;28;20040;-59
2024/02/10 06:51:35;;;;;;;28.98;26.77;;;;;;;;;;5052393;28;20028;-58
2024/02/10 06:54:03;;;;;;;29.02;26.83;;;;;;;;;;5051459;28;20151;-58
2024/02/10 06:56:29;;;;;;;29.38;27.10;;;;;;;;;;5052924;28;20021;-55
2024/02/10 06:58:56;;;;;;;29.60;27.30;;;;;;;;;;5076010;22;20041;-53
2024/02/10 07:01:22;;;;;;;29.60;27.33;;;;;;;;;;5052201;28;20029;-54
2024/02/10 07:03:48;;;;;;;29.50;27.20;;;;;;;;;;5053119;28;20105;-54
2024/02/10 07:06:17;;;;;;;29.77;27.48;;;;;;;;;;5053622;28;20021;-52
2024/02/10 07:08:43;;;;;;;29.90;27.60;;;;;;;;;;5052385;28;20090;-53
2024/02/10 07:11:09;;;;;;;29.90;27.60;;;;;;;;;;5053484;28;20021;-49
2024/02/10 07:13:36;;;;;;;29.58;27.27;;;;;;;;;;5053275;28;20678;-51
2024/02/10 07:16:06;;;;;;;29.25;26.95;;;;;;;;;;5051971;28;20025;-56
2024/02/10 07:18:32;;;;;;;29.75;27.45;;;;;;;;;;5053188;28;20120;-50
2024/02/10 07:20:59;;;;;;;29.25;26.95;;;;;;;;;;5053312;28;20093;-52
2024/02/10 07:23:28;;;;;;;29.67;27.38;;;;;;;;;;5053108;28;20525;-52
2024/02/10 07:25:54;;;;;;;29.50;27.20;;;;;;;;;;5053250;28;20029;-54
2024/02/10 07:28:21;;;;;;;29.63;27.33;;;;;;;;;;5051807;28;20057;-50
2024/02/10 07:30:52;;;;;;;29.45;27.15;;;;;;;;;;5053306;28;20021;-56
2024/02/10 07:33:18;;;;;;;29.90;27.60;;;;;;;;;;5053017;28;20033;-53
2024/02/10 07:35:49;;;;;;;30.25;27.95;;;;;;;;;;5052233;28;20387;-51
2024/02/10 07:38:18;;;;;;;30.30;28.00;;;;;;;;;;5053244;28;20029;-54
2024/02/10 07:40:44;;;;;;;30.10;27.80;;;;;;;;;;5053140;28;20021;-56
2024/02/10 07:43:15;;;;;;;29.75;27.45;;;;;;;;;;5052836;28;20398;-49
2024/02/10 07:45:41;;;;;;;30.35;28.05;;;;;;;;;;5051798;28;20075;-54
2024/02/10 07:48:07;;;;;;;30.05;27.75;;;;;;;;;;5052990;28;20032;-54
2024/02/10 07:50:36;;;;;;;29.83;27.52;;;;;;;;;;5051656;28;20120;-56
2024/02/10 07:53:02;;;;;;;27.65;25.50;;;;;;;;;;5051894;28;20520;-51
2024/02/10 07:55:28;;;;;;;27.73;25.52;;;;;;;;;;5052974;28;20051;-50
2024/02/10 07:57:56;;;;;;;27.33;25.23;;;;;;;;;;5052720;28;20157;-51
2024/02/10 08:00:22;;;;;;;27.38;25.25;;;;;;;;;;5051523;28;20068;-56
2024/02/10 08:02:48;;;;;;;27.13;25.02;;;;;;;;;;5052764;28;20031;-53
2024/02/10 08:05:20;;;;;;;27.95;25.75;;;;;;;;;;5051385;28;20021;-53
2024/02/10 08:07:46;;;;;;;27.45;25.25;;;;;;;;;;5052733;28;20017;-50
2024/02/10 08:10:12;;;;;;;27.88;25.67;;;;;;;;;;5052764;28;20119;-49
2024/02/10 08:12:38;;;;;;;27.30;25.20;;;;;;;;;;5051221;28;20120;-51
2024/02/10 08:15:06;;;;;;;27.65;25.45;;;;;;;;;;5048279;28;20025;-50
2024/02/10 08:17:32;;;;;;;27.77;25.57;;;;;;;;;;5032093;28;20088;-46
2024/02/10 08:19:58;;;;;;;27.17;25.08;;;;;;;;;;5047435;28;20063;-55
2024/02/10 08:22:30;;;;;;;27.58;25.45;;;;;;;;;;5051999;28;20029;-56
2024/02/10 08:24:58;;;;;;;27.58;25.38;;;;;;;;;;5047726;28;20049;-52
2024/02/10 08:27:25;;;;;;;27.80;25.60;;;;;;;;;;5032225;28;20021;-50
2024/02/10 08:29:52;;;;;;;27.02;24.92;;;;;;;;;;5032239;28;20028;-49
2024/02/10 08:32:18;;;;;;;27.05;24.95;;;;;;;;;;5042992;28;20025;-53
2024/02/10 08:34:44;;;;;;;27.48;25.27;;;;;;;;;;5050610;28;20028;-53
2024/02/10 08:37:12;;;;;;;27.02;24.92;;;;;;;;;;5052123;28;20029;-52
2024/02/10 08:39:38;;;;;;;27.42;25.23;;;;;;;;;;5052155;28;20461;-54
2024/02/10 08:42:09;;;;;;;27.17;25.08;;;;;;;;;;5051651;28;20059;-49
2024/02/10 08:44:35;;;;;;;27.40;25.20;;;;;;;;;;5051174;28;20024;-55
2024/02/10 08:47:05;;;;;;;27.55;25.35;;;;;;;;;;5051935;28;20163;-53
2024/02/10 08:49:31;;;;;;;27.40;25.20;;;;;;;;;;5038969;28;20057;-53
2024/02/10 08:51:58;;;;;;;27.45;25.25;;;;;;;;;;5031441;28;20082;-55
2024/02/10 08:54:30;;;;;;;27.60;25.40;;;;;;;;;;5031570;28;20022;-53
2024/02/10 08:57:00;;;;;;;27.35;25.15;;;;;;;;;;5031399;28;20053;-51
2024/02/10 08:59:33;;;;;;;27.55;25.35;;;;;;;;;;5031132;28;20025;-50
2024/02/10 09:02:04;;;;;;;26.98;24.88;;;;;;;;;;5031371;28;20022;-56
2024/02/10 09:04:31;;;;;;;26.67;24.58;;;;;;;;;;5031750;28;20049;-52
2024/02/10 09:07:00;;;;;;;26.95;24.75;;;;;;;;;;5031914;28;20025;-53
2024/02/10 09:09:26;;;;;;;26.63;24.52;;;;;;;;;;5031799;28;20025;-53
2024/02/10 09:11:52;;;;;;;27.15;24.95;;;;;;;;;;5031134;28;20025;-56
2024/02/10 09:14:19;;;;;;;26.45;24.35;;;;;;;;;;5032306;28;20029;-55
2024/02/10 09:16:45;;;;;;;25.95;23.85;;;;;;;;;;5051473;28;20028;-53
2024/02/10 09:19:12;;;;;;;25.45;23.35;;;;;;;;;;5049914;28;20060;-55
2024/02/10 09:21:39;;;;;;;25.05;23.05;;;;;;;;;;5051250;28;20407;-56
2024/02/10 09:24:05;;;;;;;25.60;23.60;;;;;;;;;;5051469;28;20363;-57
2024/02/10 09:26:31;;;;;;;26.65;24.55;;;;;;;;;;5051337;28;20048;-58
2024/02/10 09:28:57;;;;;;;25.88;23.77;;;;;;;;;;5051142;28;20068;-54
2024/02/10 09:31:24;;;;;;;24.35;22.35;;;;;;;;;;5051096;28;20029;-56
2024/02/10 09:33:50;;;;;;;24.40;22.40;;;;;;;;;;5050774;28;20099;-56
2024/02/10 09:36:16;;;;;;;23.02;21.13;;;;;;;;;;5050840;28;20025;-54
2024/02/10 09:38:43;;;;;;;23.20;21.30;;;;;;;;;;5049088;28;20033;-54
2024/02/10 09:41:12;;;;;;;22.25;20.35;;;;;;;;;;5049094;28;20097;-56
2024/02/10 09:43:40;;;;;;;21.73;19.83;;;;;;;;;;5050646;28;20515;-53
2024/02/10 09:46:07;;;;;;;21.15;19.25;;;;;;;;;;5049909;28;20032;-55
2024/02/10 09:48:40;;;;;;;20.35;18.55;;;;;;;;;;5050351;28;20081;-58
2024/02/10 09:51:06;;;;;;;20.05;18.25;;;;;;;;;;5049325;28;20044;-54
2024/02/10 09:53:33;;;;;;;20.48;18.67;;;;;;;;;;5050131;28;20024;-55
2024/02/10 09:55:59;;;;;;;20.13;18.33;;;;;;;;;;5050644;28;20025;-53
2024/02/10 09:58:25;;;;;;;19.42;17.63;;;;;;;;;;5050123;28;20141;-49
2024/02/10 10:00:52;;;;;;;18.45;16.65;;;;;;;;;;5050327;28;20112;-54
2024/02/10 10:03:18;;;;;;;16.50;14.80;;;;;;;;;;5050054;28;20036;-54
2024/02/10 10:05:45;;;;;;;15.85;14.15;;;;;;;;;;5050633;28;20036;-51
2024/02/10 10:08:12;;;;;;;14.97;12.77;;;;;;;;;;5050500;28;20036;-52
2024/02/10 10:10:38;;;;;;;14.60;11.68;;;;;;;;;;5050334;28;20576;-54
2024/02/10 10:13:10;;;;;;;14.50;11.35;;;;;;;;;;5049989;28;20037;-50
2024/02/10 10:15:38;;;;;;;14.50;11.38;;;;;;;;;;5050200;28;20088;-55
2024/02/10 10:18:13;;;;;;;14.57;11.38;;;;;;;;;;5048841;28;20052;-57
2024/02/10 10:20:39;;;;;;;14.48;11.10;;;;;;;;;;5050436;28;20147;-53
2024/02/10 10:23:08;;;;;;;14.23;10.57;;;;;;;;;;5049309;28;20067;-51
2024/02/10 10:25:34;;;;;;;14.30;10.50;;;;;;;;;;5050810;28;20019;-54
2024/02/10 10:28:00;;;;;;;13.75;9.30;;;;;;;;;;5048767;28;20554;-53
2024/02/10 10:30:26;;;;;;;13.55;8.60;;;;;;;;;;5048659;28;20112;-52
2024/02/10 10:32:53;;;;;;;13.63;8.77;;;;;;;;;;5049923;28;20516;-56
2024/02/10 10:35:22;;;;;;;13.55;8.68;;;;;;;;;;5049847;28;20422;-55
2024/02/10 10:37:49;;;;;;;13.48;8.15;;;;;;;;;;5049762;28;20395;-62
2024/02/10 10:40:16;;;;;;;13.55;8.50;;;;;;;;;;5050163;28;20032;-56
2024/02/10 10:42:42;;;;;;;13.45;8.27;;;;;;;;;;5049669;28;20082;-56
2024/02/10 10:45:10;;;;;;;13.43;8.20;;;;;;;;;;5049542;28;20049;-58
2024/02/10 10:47:41;;;;;;;13.27;7.90;;;;;;;;;;5049777;28;20366;-55
2024/02/10 10:50:10;;;;;;;13.27;7.90;;;;;;;;;;5049857;28;20025;-56
2024/02/10 10:52:42;;;;;;;13.38;7.97;;;;;;;;;;5049358;28;20018;-56
2024/02/10 10:55:09;;;;;;;13.27;7.93;;;;;;;;;;5048305;28;20021;-54
2024/02/10 10:57:36;;;;;;;13.10;7.68;;;;;;;;;;5049515;28;20037;-54
2024/02/10 11:00:11;;;;;;;11.90;6.90;;;;;;;;;;5049493;28;20378;-52
2024/02/10 11:02:37;;;;;;;12.55;7.28;;;;;;;;;;5048996;28;20420;-58
2024/02/10 11:05:05;;;;;;;12.98;7.55;;;;;;;;;;5049369;28;20021;-54
2024/02/10 11:07:37;;;;;;;12.65;7.40;;;;;;;;;;5047934;28;20032;-55
2024/02/10 11:10:08;;;;;;;12.25;7.13;;;;;;;;;;5049525;28;20032;-53
2024/02/10 11:12:37;;;;;;;11.90;6.90;;;;;;;;;;5049178;28;20459;-54
2024/02/10 11:15:09;;;;;;;12.68;7.38;;;;;;;;;;5049475;28;20032;-52
2024/02/10 11:17:36;;;;;;;12.32;7.13;;;;;;;;;;5048054;28;20033;-58
2024/02/10 11:20:07;;;;;;;12.93;7.50;;;;;;;;;;5049384;28;20021;-58
2024/02/10 11:22:36;;;;;;;12.63;7.40;;;;;;;;;;5047598;28;20102;-52
2024/02/10 11:25:03;;;;;;;12.00;7.00;;;;;;;;;;5048306;28;20518;-54
2024/02/10 11:27:32;;;;;;;11.55;6.82;;;;;;;;;;5047991;28;20032;-50
2024/02/10 11:30:00;;;;;;;12.32;7.18;;;;;;;;;;5048163;28;20479;-51
2024/02/10 11:32:31;;;;;;;11.93;6.93;;;;;;;;;;5048046;28;20033;-56
2024/02/10 11:34:57;;;;;;;12.60;7.32;;;;;;;;;;5051557;28;20021;-50
2024/02/10 11:37:25;;;;;;;12.32;7.20;;;;;;;;;;5053289;28;20108;-53
2024/02/10 11:39:52;;;;;;;12.57;7.30;;;;;;;;;;5053319;28;20028;-56
2024/02/10 11:42:20;;;;;;;12.40;7.22;;;;;;;;;;5052827;28;20024;-47
2024/02/10 11:44:46;;;;;;;13.18;7.80;;;;;;;;;;5051648;28;20407;-54
2024/02/10 11:47:12;;;;;;;12.70;7.40;;;;;;;;;;5053080;28;20113;-48
2024/02/10 11:49:39;;;;;;;13.25;7.82;;;;;;;;;;5051360;28;20032;-52
2024/02/10 11:52:08;;;;;;;12.55;7.35;;;;;;;;;;5052384;28;20025;-49
2024/02/10 11:54:36;;;;;;;13.05;7.65;;;;;;;;;;5052414;28;20025;-53
2024/02/10 11:57:03;;;;;;;12.70;7.40;;;;;;;;;;5051262;28;20064;-53
2024/02/10 11:59:30;;;;;;;13.27;7.93;;;;;;;;;;5051850;28;20052;-53
2024/02/10 12:01:56;;;;;;;13.18;7.78;;;;;;;;;;5052011;28;20048;-53
2024/02/10 12:04:24;;;;;;;13.25;7.90;;;;;;;;;;5051209;28;20098;-56
2024/02/10 12:06:50;;;;;;;13.70;8.10;;;;;;;;;;5052137;28;20017;-55
2024/02/10 12:09:16;;;;;;;13.35;8.07;;;;;;;;;;5052074;28;20086;-52
2024/02/10 12:11:42;;;;;;;13.45;8.25;;;;;;;;;;5051844;28;20120;-55
2024/02/10 12:14:12;;;;;;;13.52;8.57;;;;;;;;;;5052417;28;20099;-57
2024/02/10 12:16:39;;;;;;;13.68;8.77;;;;;;;;;;5051724;28;20021;-57
2024/02/10 12:19:06;;;;;;;13.70;8.85;;;;;;;;;;5051806;28;20029;-53
2024/02/10 12:21:33;;;;;;;13.70;9.00;;;;;;;;;;5050546;28;20028;-51
2024/02/10 12:24:00;;;;;;;16.75;11.82;;;;;;;;;;5051646;28;20032;-55
2024/02/10 12:26:28;;;;;;;13.50;8.50;;;;;;;;;;5051782;28;20060;-56
2024/02/10 12:28:54;;;;;;;13.70;8.93;;;;;;;;;;5048961;28;20418;-54
2024/02/10 12:31:20;;;;;;;13.70;9.00;;;;;;;;;;5049188;28;20463;-52
2024/02/10 12:33:50;;;;;;;13.65;8.80;;;;;;;;;;5049356;28;20568;-54
2024/02/10 12:36:16;;;;;;;13.57;8.60;;;;;;;;;;5049698;28;20403;-50
2024/02/10 12:38:42;;;;;;;13.50;8.40;;;;;;;;;;5049457;28;20037;-54
2024/02/10 12:41:09;;;;;;;14.70;9.90;;;;;;;;;;5049535;28;20419;-53
2024/02/10 12:43:38;;;;;;;13.73;9.05;;;;;;;;;;5049727;28;20119;-58
2024/02/10 12:46:04;;;;;;;13.80;9.18;;;;;;;;;;5049703;28;20322;-53
2024/02/10 12:48:30;;;;;;;13.55;8.70;;;;;;;;;;5051686;28;20033;-51
2024/02/10 12:50:57;;;;;;;13.48;8.38;;;;;;;;;;5051465;28;20090;-56
2024/02/10 12:53:28;;;;;;;13.48;8.45;;;;;;;;;;5051470;28;20021;-52
2024/02/10 12:55:54;;;;;;;13.38;8.13;;;;;;;;;;5051671;28;20040;-55
2024/02/10 12:58:20;;;;;;;13.52;8.45;;;;;;;;;;5052269;28;20124;-56
2024/02/10 13:00:47;;;;;;;13.52;8.35;;;;;;;;;;5051673;28;20455;-54
2024/02/10 13:03:19;;;;;;;13.48;8.30;;;;;;;;;;5050948;28;20029;-56
2024/02/10 13:05:45;;;;;;;13.43;8.10;;;;;;;;;;5051636;28;20079;-55
2024/02/10 13:08:11;;;;;;;13.25;8.02;;;;;;;;;;5051396;28;20029;-55
2024/02/10 13:10:37;;;;;;;13.35;8.00;;;;;;;;;;5051318;28;20438;-53
2024/02/10 13:13:06;;;;;;;13.40;8.10;;;;;;;;;;5050964;28;20025;-53
2024/02/10 13:15:38;;;;;;;13.43;8.15;;;;;;;;;;5051040;28;20071;-52
2024/02/10 13:18:04;;;;;;;13.43;8.10;;;;;;;;;;5051132;28;20032;-52
2024/02/10 13:20:30;;;;;;;13.40;8.10;;;;;;;;;;5051320;28;20096;-56
2024/02/10 13:22:56;;;;;;;13.38;8.00;;;;;;;;;;5050891;28;20435;-52
2024/02/10 13:25:23;;;;;;;13.43;8.05;;;;;;;;;;5051163;28;20021;-55
2024/02/10 13:27:52;;;;;;;18.58;11.23;;;;;;;;;;5050850;28;20360;-54
2024/02/10 13:30:22;;;;;;;13.40;8.15;;;;;;;;;;5050897;28;20017;-57
2024/02/10 13:32:49;;;;;;;13.40;8.10;;;;;;;;;;5050290;28;20459;-49
2024/02/10 13:35:15;;;;;;;13.38;8.00;;;;;;;;;;5050631;28;20024;-54
2024/02/10 14:08:32;;;;;;;13.38;8.07;;;;;;;;;;5050474;28;20025;-51
2024/02/10 14:12:40;;;;;;;13.38;8.00;;;;;;;;;;5050005;28;20048;-50
2024/02/10 14:15:16;;;;;;;13.50;8.40;;;;;;;;;;5048798;28;20135;-56
2024/02/10 14:17:42;;;;;;;13.50;8.43;;;;;;;;;;5050158;28;20483;-51
2024/02/10 14:20:18;;;;;;;13.48;8.30;;;;;;;;;;5048566;28;20032;-55
2024/02/10 14:22:44;;;;;;;13.45;8.27;;;;;;;;;;5049861;28;20084;-52
2024/02/10 14:25:18;;;;;;;13.52;8.57;;;;;;;;;;5050172;28;20021;-54
2024/02/10 14:27:47;;;;;;;13.65;8.60;;;;;;;;;;5050095;28;20494;-56
2024/02/10 14:30:15;;;;;;;13.57;8.55;;;;;;;;;;5049772;28;20129;-55
2024/02/10 14:32:42;;;;;;;13.90;8.95;;;;;;;;;;5049540;28;20032;-56
2024/02/10 14:35:24;;;;;;;13.63;8.70;;;;;;;;;;5049991;28;20078;-57
2024/02/10 14:38:07;;;;;;;13.40;8.10;;;;;;;;;;5049852;28;20025;-55
2024/02/10 14:40:35;;;;;;;13.50;8.40;;;;;;;;;;5048545;28;20475;-53
2024/02/10 14:43:01;;;;;;;13.48;8.52;;;;;;;;;;5049614;28;20390;-52
2024/02/10 14:45:27;;;;;;;13.50;8.32;;;;;;;;;;5049903;28;20028;-51
2024/02/10 14:47:54;;;;;;;15.75;10.30;;;;;;;;;;5049689;28;20036;-54
2024/02/10 14:50:21;;;;;;;13.48;8.30;;;;;;;;;;5049732;28;20040;-55
2024/02/10 14:52:47;;;;;;;15.00;8.70;;;;;;;;;;5048154;28;20186;-53
2024/02/10 14:55:14;;;;;;;13.52;8.40;;;;;;;;;;5048220;28;20032;-54